Time;durP1;ratioP1;P1;durP2;ratioP2;P2;SDS_P1;SDS_P2;PMS_P1;PMS_P2;Temp;Humidity;BMP_temperature;BMP_pressure;BME280_temperature;BME280_humidity;BME280_pressure;Samples;Min_cycle;Max_cycle;Signal;HPM_P1;HPM_P2
2022/06/09 00:00:10;;;;;;;3.70;3.50;;;;;;;16.41;88.41;99485.34;5051847;28;20200;-74
2022/06/09 00:02:39;;;;;;;3.60;3.33;;;;;;;16.46;87.92;99499.94;5053254;28;20302;-74
2022/06/09 00:05:10;;;;;;;3.87;3.53;;;;;;;16.08;88.41;99497.75;5052937;28;20233;-75
2022/06/09 00:07:37;;;;;;;4.50;4.20;;;;;;;15.83;89.81;99460.59;5053300;28;20207;-74
2022/06/09 00:10:07;;;;;;;4.43;4.13;;;;;;;15.98;90.41;99438.66;5053310;28;20204;-74
2022/06/09 00:12:34;;;;;;;4.50;4.20;;;;;;;16.11;89.50;99453.75;5053181;28;20208;-74
2022/06/09 00:15:03;;;;;;;4.70;4.40;;;;;;;16.17;88.95;99464.75;5053025;28;20226;-74
2022/06/09 00:17:30;;;;;;;5.03;4.63;;;;;;;16.24;89.18;99474.00;5052974;28;20254;-74
2022/06/09 00:19:57;;;;;;;5.47;4.27;;;;;;;16.28;88.90;99477.31;5052964;28;20222;-74
2022/06/09 00:22:25;;;;;;;4.90;4.50;;;;;;;16.21;88.63;99487.38;5052750;28;20218;-74
2022/06/09 00:24:51;;;;;;;4.80;4.40;;;;;;;16.25;88.49;99485.38;5052763;28;20270;-74
2022/06/09 00:27:18;;;;;;;4.80;4.50;;;;;;;16.22;88.32;99509.28;5053077;28;20215;-75
2022/06/09 00:29:44;;;;;;;5.17;4.70;;;;;;;16.25;88.31;99499.44;5052300;28;20218;-74
2022/06/09 00:32:11;;;;;;;4.90;4.37;;;;;;;16.28;88.16;99514.19;5052716;28;20204;-73
2022/06/09 00:34:37;;;;;;;4.20;4.00;;;;;;;16.27;88.10;99525.66;5052989;28;20206;-74
2022/06/09 00:37:04;;;;;;;4.50;4.10;;;;;;;16.25;88.91;99509.97;5052515;28;20254;-73
2022/06/09 00:39:32;;;;;;;5.27;4.87;;;;;;;16.30;88.43;99511.47;5052623;28;20207;-73
2022/06/09 00:41:58;;;;;;;4.63;4.33;;;;;;;16.30;88.15;99514.09;5052354;28;20246;-74
2022/06/09 00:44:26;;;;;;;4.47;4.27;;;;;;;16.32;88.19;99522.75;5052124;28;20227;-74
2022/06/09 00:46:58;;;;;;;5.10;4.70;;;;;;;16.33;88.48;99521.81;5052777;28;20219;-74
2022/06/09 00:49:28;;;;;;;4.77;4.47;;;;;;;16.21;87.62;99529.50;5052487;28;20191;-73
2022/06/09 00:51:57;;;;;;;5.10;4.60;;;;;;;16.21;88.33;99531.25;5052240;28;20260;-74
2022/06/09 00:54:28;;;;;;;5.30;4.80;;;;;;;16.25;88.45;99519.63;5052053;28;20261;-74
2022/06/09 00:57:02;;;;;;;5.90;5.50;;;;;;;16.22;88.92;99511.91;5052580;28;20244;-73
2022/06/09 00:59:30;;;;;;;5.97;5.40;;;;;;;16.26;89.08;99505.53;5052241;28;20235;-74
2022/06/09 01:02:00;;;;;;;6.27;5.77;;;;;;;16.07;88.61;99510.97;5051938;28;20733;-74
2022/06/09 01:04:30;;;;;;;6.07;5.67;;;;;;;16.16;88.56;99507.84;5052590;28;20301;-74
2022/06/09 01:07:03;;;;;;;5.53;5.17;;;;;;;16.09;88.78;99511.75;5052206;28;20220;-73
2022/06/09 01:09:31;;;;;;;6.00;5.60;;;;;;;16.19;88.53;99523.44;5051980;28;20296;-73
2022/06/09 01:11:59;;;;;;;6.73;6.23;;;;;;;16.18;88.59;99523.56;5052047;28;20215;-74
2022/06/09 01:14:29;;;;;;;5.77;5.37;;;;;;;16.17;88.65;99532.38;5051925;28;20205;-73
2022/06/09 01:17:09;;;;;;;6.37;5.80;;;;;;;16.02;88.46;99537.56;5052229;28;20253;-74
2022/06/09 01:19:54;;;;;;;7.30;6.77;;;;;;;15.94;89.28;99515.25;5051915;28;20219;-73
2022/06/09 01:22:38;;;;;;;8.13;7.63;;;;;;;15.89;89.62;99508.44;5051904;28;20207;-73
2022/06/09 01:25:31;;;;;;;7.80;7.13;;;;;;;15.93;88.92;99513.56;5051790;28;20237;-73
2022/06/09 01:28:33;;;;;;;7.60;7.00;;;;;;;15.97;88.78;99523.81;5051850;28;20218;-74
2022/06/09 01:31:05;;;;;;;7.90;7.30;;;;;;;15.97;88.60;99531.72;5051506;28;20660;-73
2022/06/09 01:33:37;;;;;;;8.53;7.83;;;;;;;16.02;88.40;99531.47;5052220;28;20202;-74
2022/06/09 01:36:09;;;;;;;7.93;7.33;;;;;;;15.98;88.88;99530.78;5051731;28;20271;-73
2022/06/09 01:38:46;;;;;;;8.27;7.57;;;;;;;15.97;88.50;99541.41;5051524;28;20558;-74
2022/06/09 01:41:14;;;;;;;8.87;8.17;;;;;;;15.97;88.38;99551.94;5051633;28;20210;-73
2022/06/09 01:43:41;;;;;;;8.70;7.97;;;;;;;15.85;88.92;99529.75;5051808;28;20231;-73
2022/06/09 01:46:19;;;;;;;9.03;8.33;;;;;;;15.88;89.25;99513.81;5051829;28;20232;-74
2022/06/09 01:48:45;;;;;;;9.50;8.70;;;;;;;15.91;89.07;99528.59;5051402;28;20294;-73
2022/06/09 01:51:15;;;;;;;12.77;9.27;;;;;;;15.90;88.48;99538.28;5051424;28;20211;-73
2022/06/09 01:53:45;;;;;;;10.87;9.87;;;;;;;15.83;88.64;99542.16;5051894;28;20227;-73
2022/06/09 01:56:17;;;;;;;9.80;8.80;;;;;;;15.84;88.65;99541.25;5051561;28;20258;-73
2022/06/09 01:58:51;;;;;;;9.90;9.10;;;;;;;15.84;88.32;99544.72;5051411;28;20260;-74
2022/06/09 02:01:22;;;;;;;9.73;8.93;;;;;;;15.89;88.32;99547.91;5047709;28;20208;-73
2022/06/09 02:03:53;;;;;;;11.13;10.23;;;;;;;15.90;88.34;99546.16;5031731;28;20230;-74
2022/06/09 02:06:21;;;;;;;10.83;9.50;;;;;;;15.91;88.22;99555.75;5031506;28;20641;-73
2022/06/09 02:08:47;;;;;;;11.27;10.37;;;;;;;15.91;87.75;99561.00;5031298;28;20796;-73
2022/06/09 02:11:15;;;;;;;11.17;10.27;;;;;;;15.88;88.00;99559.41;5031403;28;20208;-73
2022/06/09 02:13:46;;;;;;;10.57;9.77;;;;;;;15.85;88.31;99549.03;5031024;28;20206;-73
2022/06/09 02:16:16;;;;;;;10.30;9.57;;;;;;;15.87;87.78;99557.69;5031361;28;20783;-73
2022/06/09 02:18:48;;;;;;;10.23;9.43;;;;;;;15.86;87.24;99579.69;5031346;28;20216;-73
2022/06/09 02:21:19;;;;;;;11.70;10.80;;;;;;;15.72;88.06;99566.41;5030976;28;20679;-73
2022/06/09 02:23:47;;;;;;;11.13;10.23;;;;;;;15.72;88.59;99555.88;5034710;28;20233;-73
2022/06/09 02:26:14;;;;;;;10.73;9.97;;;;;;;15.78;88.34;99562.63;5035075;28;20236;-73
2022/06/09 02:28:41;;;;;;;10.97;10.07;;;;;;;15.79;88.23;99561.69;5034915;28;20740;-73
2022/06/09 02:31:07;;;;;;;11.50;10.53;;;;;;;15.77;88.11;99574.91;5053638;28;20731;-73
2022/06/09 02:33:34;;;;;;;11.90;11.00;;;;;;;15.67;88.77;99556.13;5054927;28;20257;-73
2022/06/09 02:36:02;;;;;;;14.13;13.00;;;;;;;15.67;88.61;99557.91;5054756;28;20698;-73
2022/06/09 02:38:28;;;;;;;14.53;13.33;;;;;;;15.68;88.48;99564.88;5055002;28;20202;-73
2022/06/09 02:40:55;;;;;;;15.27;13.97;;;;;;;15.71;88.43;99566.47;5054526;28;20268;-73
2022/06/09 02:43:22;;;;;;;16.63;15.13;;;;;;;15.55;88.25;99574.34;5054658;28;20683;-73
2022/06/09 02:45:49;;;;;;;15.03;13.80;;;;;;;15.61;88.71;99556.44;5045614;28;20598;-73
2022/06/09 02:48:16;;;;;;;14.87;13.77;;;;;;;15.64;88.68;99564.19;5043271;28;20589;-73
2022/06/09 02:50:46;;;;;;;14.73;13.33;;;;;;;15.64;88.54;99571.25;5044596;28;20195;-73
2022/06/09 02:53:14;;;;;;;16.37;15.00;;;;;;;15.61;88.80;99564.34;5044892;28;20238;-73
2022/06/09 02:55:41;;;;;;;15.97;14.43;;;;;;;15.63;88.64;99573.00;5044883;28;20222;-73
2022/06/09 02:58:08;;;;;;;14.07;12.97;;;;;;;15.63;88.76;99564.25;5044392;28;20213;-73
2022/06/09 03:00:35;;;;;;;14.43;13.23;;;;;;;15.64;88.34;99572.09;5049968;28;20582;-73
2022/06/09 03:03:03;;;;;;;15.20;13.73;;;;;;;15.65;88.35;99583.44;5049638;28;20199;-73
2022/06/09 03:05:33;;;;;;;14.43;13.13;;;;;;;15.64;89.07;99558.09;5044393;28;20280;-73
2022/06/09 03:07:59;;;;;;;14.23;12.97;;;;;;;15.62;89.46;99558.16;5042620;28;20660;-73
2022/06/09 03:10:27;;;;;;;13.63;12.27;;;;;;;15.59;88.81;99560.94;5043913;28;20198;-73
2022/06/09 03:12:54;;;;;;;14.70;13.30;;;;;;;15.60;88.04;99590.72;5044955;28;20262;-73
2022/06/09 03:15:23;;;;;;;15.40;14.00;;;;;;;15.59;88.58;99589.03;5044789;28;20239;-73
2022/06/09 03:17:50;;;;;;;15.50;14.10;;;;;;;15.56;88.91;99581.28;5044248;28;20201;-73
2022/06/09 03:20:21;;;;;;;13.30;12.30;;;;;;;15.44;89.84;99559.13;5042589;28;20259;-73
2022/06/09 03:22:47;;;;;;;15.27;13.93;;;;;;;15.48;89.42;99551.00;5043580;28;20454;-73
2022/06/09 03:25:14;;;;;;;14.83;13.43;;;;;;;15.51;89.24;99546.53;5044547;28;20227;-73
2022/06/09 03:27:42;;;;;;;15.13;13.60;;;;;;;15.51;89.76;99559.66;5051194;28;20199;-73
2022/06/09 03:30:10;;;;;;;14.07;12.80;;;;;;;15.54;88.97;99580.53;5053453;28;20282;-73
2022/06/09 03:32:37;;;;;;;15.87;12.50;;;;;;;15.48;88.96;99584.38;5053478;28;20196;-73
2022/06/09 03:35:05;;;;;;;14.03;12.63;;;;;;;15.47;89.29;99593.16;5053388;28;20213;-73
2022/06/09 03:37:31;;;;;;;13.20;11.87;;;;;;;15.48;89.02;99597.50;5052870;28;20221;-73
2022/06/09 03:39:58;;;;;;;13.13;11.70;;;;;;;15.49;88.88;99607.94;5053166;28;20205;-73
2022/06/09 03:42:24;;;;;;;13.23;12.03;;;;;;;15.48;89.05;99610.66;5053191;28;20232;-73
2022/06/09 03:44:52;;;;;;;12.63;11.37;;;;;;;15.53;89.23;99595.47;5053119;28;20705;-73
2022/06/09 03:47:18;;;;;;;11.43;10.53;;;;;;;15.54;88.99;99601.56;5053546;28;20252;-73
2022/06/09 03:49:45;;;;;;;12.17;10.93;;;;;;;15.57;88.59;99611.94;5053414;28;20194;-73
2022/06/09 03:52:11;;;;;;;11.47;10.37;;;;;;;15.52;88.59;99625.34;5053006;28;20205;-73
2022/06/09 03:54:38;;;;;;;10.97;9.87;;;;;;;15.42;88.63;99624.97;5052842;28;20669;-73
2022/06/09 03:57:05;;;;;;;11.87;10.80;;;;;;;15.35;88.96;99634.09;5052903;28;20681;-73
2022/06/09 03:59:32;;;;;;;12.37;11.13;;;;;;;15.41;89.58;99609.28;5052970;28;20198;-73
2022/06/09 04:02:00;;;;;;;12.60;11.30;;;;;;;15.38;89.48;99617.31;5052897;28;20199;-73
2022/06/09 04:04:26;;;;;;;12.13;11.13;;;;;;;15.52;89.87;99613.97;5053030;28;20267;-73
2022/06/09 04:06:53;;;;;;;12.43;11.43;;;;;;;15.57;90.01;99598.78;5052389;28;20251;-73
2022/06/09 04:09:20;;;;;;;12.67;11.67;;;;;;;15.65;90.08;99607.13;5049736;28;20226;-73
2022/06/09 04:11:47;;;;;;;11.83;10.73;;;;;;;15.68;89.20;99620.97;5053071;28;20204;-73
2022/06/09 04:14:13;;;;;;;11.63;10.63;;;;;;;15.78;88.95;99636.31;5052793;28;20201;-73
2022/06/09 04:16:44;;;;;;;11.87;10.67;;;;;;;15.77;88.74;99653.03;5050327;28;20631;-73
2022/06/09 04:19:16;;;;;;;11.80;10.63;;;;;;;15.80;88.46;99663.41;5052219;28;20284;-73
2022/06/09 04:21:43;;;;;;;11.20;10.17;;;;;;;15.81;88.29;99672.97;5049946;28;20730;-73
2022/06/09 04:24:10;;;;;;;12.97;10.83;;;;;;;15.87;87.92;99685.81;5052651;28;20271;-73
2022/06/09 04:26:39;;;;;;;10.57;9.47;;;;;;;15.73;87.77;99685.69;5052321;28;20769;-73
2022/06/09 04:29:07;;;;;;;11.80;10.60;;;;;;;15.84;88.34;99673.66;5051812;28;20284;-73
2022/06/09 04:31:34;;;;;;;11.30;10.30;;;;;;;15.87;87.94;99684.00;5052498;28;20231;-73
2022/06/09 04:34:01;;;;;;;10.67;9.77;;;;;;;15.90;87.10;99701.44;5043910;28;20249;-73
2022/06/09 04:36:29;;;;;;;11.10;10.30;;;;;;;15.97;87.60;99700.16;5032325;28;20635;-73
2022/06/09 04:38:55;;;;;;;11.60;10.63;;;;;;;15.99;88.12;99681.66;5032423;28;20681;-73
2022/06/09 04:41:22;;;;;;;11.00;9.47;;;;;;;15.98;88.32;99672.09;5032541;28;20707;-73
2022/06/09 04:43:49;;;;;;;11.10;10.00;;;;;;;15.96;88.38;99677.44;5032575;28;20210;-73
2022/06/09 04:46:18;;;;;;;11.70;10.70;;;;;;;15.96;88.19;99690.59;5032119;28;20230;-73
2022/06/09 04:48:45;;;;;;;11.70;10.67;;;;;;;16.01;88.08;99688.53;5032322;28;20202;-73
2022/06/09 04:51:13;;;;;;;11.93;10.93;;;;;;;15.94;88.30;99686.34;5032715;28;20203;-73
2022/06/09 04:53:41;;;;;;;13.00;11.47;;;;;;;15.97;88.67;99671.22;5032382;28;20276;-73
2022/06/09 04:56:09;;;;;;;12.50;11.37;;;;;;;16.06;88.43;99681.25;5032361;28;20284;-73
2022/06/09 04:58:38;;;;;;;15.77;12.57;;;;;;;16.09;88.40;99685.50;5032298;28;20572;-73
2022/06/09 05:01:05;;;;;;;13.93;12.43;;;;;;;16.10;88.56;99686.38;5050240;28;20202;-73
2022/06/09 05:03:32;;;;;;;14.40;12.87;;;;;;;16.14;88.05;99690.53;5052153;28;20245;-73
2022/06/09 05:05:59;;;;;;;14.00;12.80;;;;;;;16.10;88.66;99692.47;5051952;28;20323;-73
2022/06/09 05:08:26;;;;;;;18.57;14.33;;;;;;;16.08;88.76;99689.94;5052245;28;20209;-73
2022/06/09 05:10:53;;;;;;;15.93;13.37;;;;;;;16.10;88.14;99710.06;5051675;28;20207;-73
2022/06/09 05:13:20;;;;;;;14.57;13.23;;;;;;;16.07;88.22;99713.69;5052057;28;20210;-73
2022/06/09 05:15:50;;;;;;;14.73;13.43;;;;;;;16.08;88.26;99723.31;5052245;28;20218;-73
2022/06/09 05:18:17;;;;;;;15.30;14.00;;;;;;;16.05;87.89;99719.06;5052008;28;20213;-73
2022/06/09 05:20:43;;;;;;;15.17;13.87;;;;;;;16.07;88.39;99722.47;5051854;28;20203;-73
2022/06/09 05:23:10;;;;;;;16.70;14.13;;;;;;;16.13;88.26;99728.31;5051818;28;20280;-73
2022/06/09 05:25:36;;;;;;;15.87;14.30;;;;;;;16.14;88.14;99730.88;5051806;28;20369;-73
2022/06/09 05:28:04;;;;;;;15.10;13.80;;;;;;;16.23;88.75;99729.53;5051840;28;20201;-73
2022/06/09 05:30:31;;;;;;;15.53;14.03;;;;;;;16.28;87.73;99740.66;5051273;28;20214;-73
2022/06/09 05:32:58;;;;;;;16.83;15.30;;;;;;;16.10;87.87;99746.94;5051438;28;20202;-73
2022/06/09 05:35:24;;;;;;;17.10;15.60;;;;;;;15.92;88.40;99740.84;5051581;28;20232;-73
2022/06/09 05:46:07;;;;;;;18.13;16.47;;;;;;;16.00;89.29;99726.34;5051636;28;20236;-73
2022/06/09 05:48:33;;;;;;;17.60;15.87;;;;;;;16.04;88.83;99733.16;5051596;28;20209;-73
2022/06/09 05:51:01;;;;;;;17.23;15.53;;;;;;;16.05;87.99;99757.69;5040821;28;20254;-73
2022/06/09 05:53:27;;;;;;;17.63;15.93;;;;;;;16.06;88.01;99768.16;5031758;28;20206;-73
2022/06/09 05:55:54;;;;;;;17.83;16.07;;;;;;;16.04;87.04;99792.84;5031492;28;20569;-73
2022/06/09 05:58:22;;;;;;;17.30;15.57;;;;;;;15.92;87.34;99817.19;5036057;28;20690;-72
2022/06/09 06:00:48;;;;;;;17.23;15.37;;;;;;;15.72;88.24;99800.59;5051726;28;20202;-73
2022/06/09 06:03:16;;;;;;;19.53;16.90;;;;;;;15.58;89.62;99774.09;5055427;28;20203;-73
2022/06/09 06:08:27;;;;;;;17.53;15.97;;;;;;;15.54;89.62;99759.41;5055252;28;20205;-73
2022/06/09 06:10:56;;;;;;;18.03;15.17;;;;;;;15.73;89.37;99769.88;5055495;28;20656;-74
2022/06/09 06:13:24;;;;;;;17.13;15.47;;;;;;;15.74;88.83;99785.59;5055440;28;20248;-74
2022/06/09 06:15:51;;;;;;;16.50;14.47;;;;;;;15.73;88.63;99790.94;5054665;28;20228;-74
2022/06/09 06:18:17;;;;;;;16.77;15.13;;;;;;;15.72;88.10;99804.97;5053938;28;20663;-73
2022/06/09 06:20:43;;;;;;;17.27;15.70;;;;;;;15.59;88.78;99802.13;5053892;28;20211;-73
2022/06/09 06:23:10;;;;;;;16.77;14.93;;;;;;;15.79;88.79;99799.38;5053964;28;20220;-74
2022/06/09 06:25:37;;;;;;;15.67;14.07;;;;;;;15.86;88.25;99813.09;5054064;28;20335;-73
2022/06/09 06:28:03;;;;;;;17.60;15.87;;;;;;;15.57;88.59;99814.50;5040998;28;21608;-73
2022/06/09 06:30:32;;;;;;;17.00;15.30;;;;;;;15.62;89.06;99800.19;5048036;28;20258;-73
2022/06/09 06:32:58;;;;;;;16.87;15.17;;;;;;;15.60;89.17;99807.31;5047685;28;20659;-73
2022/06/09 06:35:25;;;;;;;16.53;14.57;;;;;;;15.54;89.05;99806.75;5053630;28;20636;-73
2022/06/09 06:37:52;;;;;;;16.23;14.27;;;;;;;15.70;89.39;99805.09;5054507;28;20675;-73
2022/06/09 06:40:18;;;;;;;15.67;14.20;;;;;;;15.80;88.94;99821.28;5054801;28;20207;-73
2022/06/09 06:42:45;;;;;;;16.93;14.40;;;;;;;15.90;87.98;99846.22;5054482;28;20210;-73
2022/06/09 06:45:13;;;;;;;15.13;13.60;;;;;;;15.89;87.81;99858.50;5051244;28;20273;-73
2022/06/09 06:47:41;;;;;;;14.20;12.90;;;;;;;15.78;87.87;99868.72;5043819;28;20744;-74
2022/06/09 06:50:11;;;;;;;14.53;13.00;;;;;;;15.78;87.23;99881.88;5042342;28;20260;-73
2022/06/09 06:52:37;;;;;;;14.53;13.27;;;;;;;15.85;87.33;99880.63;5034379;28;20613;-73
2022/06/09 06:55:05;;;;;;;14.57;13.27;;;;;;;15.99;86.15;99910.69;5034405;28;20281;-73
2022/06/09 06:57:33;;;;;;;14.90;13.60;;;;;;;15.96;86.11;99934.56;5034751;28;20206;-73
2022/06/09 07:00:00;;;;;;;16.03;12.87;;;;;;;15.98;84.58;99948.50;5043619;28;20793;-73
2022/06/09 07:02:27;;;;;;;14.53;13.23;;;;;;;15.80;85.58;99968.66;5051553;28;20202;-73
2022/06/09 07:04:54;;;;;;;15.30;13.93;;;;;;;15.82;85.73;99961.56;5044808;28;20625;-73
2022/06/09 07:07:21;;;;;;;14.43;13.13;;;;;;;15.93;86.39;99948.69;5039582;28;20202;-73
2022/06/09 07:09:47;;;;;;;16.40;13.07;;;;;;;15.97;86.09;99952.88;5033494;28;20627;-73
2022/06/09 07:12:14;;;;;;;15.63;14.20;;;;;;;16.01;85.85;99954.44;5034289;28;20207;-73
2022/06/09 07:14:40;;;;;;;14.80;13.40;;;;;;;15.92;84.44;99999.66;5034556;28;20272;-73
2022/06/09 07:17:07;;;;;;;14.10;12.77;;;;;;;15.96;84.31;100010.91;5034214;28;20216;-74
2022/06/09 07:19:33;;;;;;;14.80;13.50;;;;;;;15.96;84.13;100022.28;5033943;28;20209;-74
2022/06/09 07:22:01;;;;;;;14.17;12.87;;;;;;;15.86;83.45;100045.53;5038977;28;20631;-73
2022/06/09 07:24:27;;;;;;;14.83;13.63;;;;;;;15.93;84.33;100032.94;5044825;28;20195;-74
2022/06/09 07:26:54;;;;;;;14.50;13.30;;;;;;;15.95;83.92;100041.59;5044681;28;20286;-74
2022/06/09 07:29:20;;;;;;;14.83;13.47;;;;;;;15.85;84.21;100032.44;5045655;28;20668;-74
2022/06/09 07:31:47;;;;;;;14.30;13.10;;;;;;;15.83;84.59;100032.50;5047778;28;20209;-73
2022/06/09 07:34:13;;;;;;;20.03;15.07;;;;;;;15.79;83.46;100065.16;5043665;28;20204;-73
2022/06/09 07:36:40;;;;;;;14.47;13.27;;;;;;;15.85;84.03;100045.59;5044159;28;20828;-73
2022/06/09 07:39:08;;;;;;;15.03;13.70;;;;;;;15.61;84.32;100045.78;5043978;28;20229;-73
2022/06/09 07:41:35;;;;;;;16.07;14.80;;;;;;;15.56;85.20;100015.34;5043286;28;20199;-73
2022/06/09 07:44:04;;;;;;;15.63;14.23;;;;;;;15.69;85.32;100001.56;5042342;28;20283;-73
2022/06/09 07:46:31;;;;;;;16.43;14.93;;;;;;;15.74;85.88;99980.34;5044315;28;20221;-73
2022/06/09 07:48:58;;;;;;;15.30;14.00;;;;;;;15.94;85.00;100004.84;5043188;28;20259;-73
2022/06/09 07:51:25;;;;;;;16.50;15.20;;;;;;;15.82;84.42;100028.19;5042125;28;20244;-73
2022/06/09 07:53:52;;;;;;;17.13;15.33;;;;;;;16.00;85.48;100004.56;5043256;28;20669;-73
2022/06/09 07:56:20;;;;;;;15.97;14.60;;;;;;;16.22;84.29;100028.06;5043731;28;20603;-73
2022/06/09 07:58:47;;;;;;;17.57;16.07;;;;;;;16.23;83.50;100062.22;5041772;28;20243;-74
2022/06/09 08:01:14;;;;;;;16.47;14.37;;;;;;;16.21;84.15;100058.81;5048707;28;20206;-73
2022/06/09 08:03:41;;;;;;;15.00;13.67;;;;;;;16.26;83.49;100075.22;5044224;28;20209;-74
2022/06/09 08:06:08;;;;;;;15.83;14.23;;;;;;;16.32;82.82;100081.97;5043894;28;20230;-73
2022/06/09 08:08:35;;;;;;;14.23;12.90;;;;;;;16.07;82.73;100103.34;5042461;28;20230;-73
2022/06/09 08:11:05;;;;;;;15.57;14.00;;;;;;;16.14;82.25;100112.69;5041467;28;20214;-73
2022/06/09 08:13:33;;;;;;;16.57;13.60;;;;;;;16.16;83.40;100089.78;5043044;28;20203;-73
2022/06/09 08:15:59;;;;;;;14.50;13.30;;;;;;;16.19;83.55;100079.06;5042957;28;20210;-73
2022/06/09 08:18:26;;;;;;;15.90;14.57;;;;;;;16.23;83.68;100070.13;5041202;28;20669;-74
2022/06/09 08:20:53;;;;;;;15.67;14.30;;;;;;;16.46;83.47;100076.03;5041819;28;20205;-73
2022/06/09 08:23:22;;;;;;;13.97;12.80;;;;;;;16.27;82.20;100112.94;5043074;28;20199;-73
2022/06/09 08:25:50;;;;;;;13.50;12.30;;;;;;;16.47;82.34;100119.88;5044357;28;20279;-73
2022/06/09 08:28:19;;;;;;;14.00;12.90;;;;;;;16.59;82.02;100134.25;5042242;28;20269;-74
2022/06/09 08:30:48;;;;;;;13.20;12.10;;;;;;;16.77;82.35;100129.84;5048116;28;20206;-73
2022/06/09 08:33:15;;;;;;;16.00;14.10;;;;;;;16.84;81.58;100149.75;5051596;28;20279;-73
2022/06/09 08:35:42;;;;;;;14.17;12.97;;;;;;;17.07;81.25;100144.19;5053040;28;20593;-74
2022/06/09 08:38:09;;;;;;;13.57;12.40;;;;;;;17.10;80.91;100181.88;5051373;28;20210;-73
2022/06/09 08:40:46;;;;;;;13.33;12.00;;;;;;;17.18;79.61;100224.53;5052220;28;20285;-73
2022/06/09 08:43:23;;;;;;;12.53;11.60;;;;;;;16.98;79.20;100252.75;5051986;28;20210;-74
2022/06/09 08:45:55;;;;;;;12.83;11.60;;;;;;;17.15;78.44;100273.03;5052571;28;20229;-74
2022/06/09 08:48:24;;;;;;;10.80;9.90;;;;;;;17.28;78.50;100273.28;5052580;28;20217;-73
2022/06/09 08:50:59;;;;;;;11.07;10.27;;;;;;;17.17;77.39;100305.47;5052142;28;20236;-74
2022/06/09 08:53:30;;;;;;;10.87;9.87;;;;;;;17.13;77.86;100310.97;5052375;28;20244;-73
2022/06/09 08:56:00;;;;;;;10.87;9.77;;;;;;;16.99;78.23;100293.19;5051923;28;20744;-73
2022/06/09 08:58:33;;;;;;;11.37;10.47;;;;;;;17.06;77.96;100297.22;5052335;28;20272;-73
2022/06/09 09:01:06;;;;;;;10.67;9.63;;;;;;;16.98;77.89;100304.63;5051867;28;20665;-74
2022/06/09 09:03:36;;;;;;;10.67;9.80;;;;;;;17.10;79.26;100271.53;5052244;28;20202;-73
2022/06/09 09:06:07;;;;;;;11.53;10.60;;;;;;;17.17;78.12;100276.44;5051833;28;20633;-73
2022/06/09 09:08:34;;;;;;;10.47;9.63;;;;;;;17.25;76.85;100320.94;5051761;28;20208;-73
2022/06/09 09:11:21;;;;;;;11.30;10.30;;;;;;;17.18;76.98;100324.78;5051648;28;20609;-73
2022/06/09 09:13:54;;;;;;;11.10;9.80;;;;;;;17.02;78.13;100314.09;5052236;28;20311;-73
2022/06/09 09:16:31;;;;;;;11.20;10.03;;;;;;;17.21;77.88;100307.03;5052042;28;20283;-73
2022/06/09 09:19:12;;;;;;;10.83;9.90;;;;;;;17.13;79.03;100288.09;5051918;28;20869;-73
2022/06/09 09:21:54;;;;;;;12.37;10.77;;;;;;;17.14;79.43;100260.75;5052325;28;20285;-74
2022/06/09 09:24:29;;;;;;;9.97;9.17;;;;;;;16.99;77.36;100317.75;5051663;28;20552;-73
2022/06/09 09:27:12;;;;;;;11.20;10.30;;;;;;;17.01;78.83;100313.25;5051783;28;20302;-73
2022/06/09 09:29:46;;;;;;;12.17;10.90;;;;;;;17.03;79.30;100271.84;5051660;28;20217;-73
2022/06/09 09:32:19;;;;;;;12.17;10.97;;;;;;;17.18;79.55;100267.59;5051724;28;20284;-73
2022/06/09 09:34:48;;;;;;;11.60;10.80;;;;;;;17.25;79.01;100279.56;5051829;28;20312;-73
2022/06/09 09:37:21;;;;;;;12.00;11.00;;;;;;;17.34;78.50;100291.44;5051633;28;20293;-73
2022/06/09 09:39:51;;;;;;;12.73;11.63;;;;;;;17.35;78.75;100285.25;5051132;28;20741;-73
2022/06/09 09:42:21;;;;;;;11.60;10.67;;;;;;;17.41;79.10;100276.16;5050845;28;20261;-73
2022/06/09 09:45:15;;;;;;;11.97;10.87;;;;;;;17.41;77.62;100316.59;5051610;28;20226;-73
2022/06/09 09:47:48;;;;;;;12.63;11.43;;;;;;;17.54;78.50;100301.03;5051773;28;20258;-73
2022/06/09 09:50:24;;;;;;;10.73;9.83;;;;;;;17.49;78.30;100299.53;5051276;28;20669;-73
2022/06/09 09:52:57;;;;;;;11.43;10.40;;;;;;;17.41;75.95;100337.72;5051561;28;20202;-73
2022/06/09 09:55:31;;;;;;;12.13;11.13;;;;;;;17.39;77.69;100342.22;5051600;28;20225;-74
2022/06/09 09:58:16;;;;;;;10.60;9.80;;;;;;;17.55;75.57;100336.19;5051599;28;20205;-73
2022/06/09 10:00:44;;;;;;;10.73;9.77;;;;;;;17.60;75.65;100374.63;5051189;28;20259;-73
2022/06/09 10:08:52;;;;;;;9.70;8.63;;;;;;;18.20;73.65;100445.59;5050926;28;20201;-73
2022/06/09 10:14:36;;;;;;;7.90;7.30;;;;;;;18.04;71.94;100543.25;5051376;28;20197;-73
2022/06/09 10:17:05;;;;;;;7.83;7.20;;;;;;;18.12;71.50;100534.13;5051161;28;20208;-73
2022/06/09 10:19:34;;;;;;;7.40;6.90;;;;;;;18.19;71.31;100536.34;5051082;28;20206;-73
2022/06/09 10:22:03;;;;;;;7.13;6.53;;;;;;;18.41;71.75;100552.03;5051267;28;20623;-73
2022/06/09 10:24:48;;;;;;;8.00;7.30;;;;;;;18.42;70.49;100574.03;5050929;28;20261;-73
2022/06/09 10:27:18;;;;;;;9.23;8.43;;;;;;;18.45;71.36;100550.06;5041725;28;20994;-73
2022/06/09 10:29:49;;;;;;;8.50;7.63;;;;;;;18.52;71.06;100543.56;5043578;28;20569;-73
2022/06/09 10:32:20;;;;;;;9.47;8.67;;;;;;;18.39;71.74;100538.03;5049850;28;20205;-73
2022/06/09 10:34:54;;;;;;;8.10;7.40;;;;;;;18.26;70.66;100535.13;5050674;28;20291;-73
2022/06/09 10:37:26;;;;;;;8.07;7.27;;;;;;;18.63;72.19;100540.34;5051181;28;20203;-73
2022/06/09 10:39:58;;;;;;;9.10;8.40;;;;;;;18.67;69.81;100584.22;5050408;28;20206;-73
2022/06/09 10:42:30;;;;;;;7.83;7.13;;;;;;;18.72;69.40;100605.16;5051127;28;20216;-73
2022/06/09 10:45:14;;;;;;;8.53;7.83;;;;;;;18.65;69.43;100620.44;5054333;28;20260;-73
2022/06/09 10:56:16;;;;;;;4.90;4.60;;;;;;;18.68;67.35;100686.41;5011387;28;20217;-73
2022/06/09 10:58:49;;;;;;;6.03;5.53;;;;;;;18.98;67.04;100676.13;5034472;28;20681;-73
2022/06/09 11:01:20;;;;;;;4.57;4.27;;;;;;;19.08;65.89;100734.75;5053926;28;20239;-73
2022/06/09 11:03:50;;;;;;;5.10;4.70;;;;;;;19.27;64.79;100763.81;5034388;28;20201;-73
2022/06/09 11:06:28;;;;;;;4.70;4.23;;;;;;;19.31;65.45;100770.66;5034456;28;20241;-73
2022/06/09 11:09:07;;;;;;;7.20;6.53;;;;;;;19.19;66.10;100721.84;5033776;28;20193;-73
2022/06/09 11:11:49;;;;;;;6.80;5.77;;;;;;;19.22;66.75;100703.16;5034030;28;20219;-74
2022/06/09 11:14:34;;;;;;;7.30;6.60;;;;;;;18.95;67.94;100672.78;5034204;28;20204;-73
2022/06/09 11:17:18;;;;;;;6.03;5.50;;;;;;;18.96;67.66;100672.72;5034435;28;20187;-73
2022/06/09 11:20:01;;;;;;;7.07;5.50;;;;;;;19.12;66.92;100701.91;5033859;28;20666;-73
2022/06/09 11:22:43;;;;;;;6.33;5.83;;;;;;;19.56;67.61;100661.72;5033753;28;20204;-73
2022/06/09 11:25:34;;;;;;;5.87;5.43;;;;;;;19.51;66.01;100723.78;5034039;28;20221;-73
2022/06/09 11:28:12;;;;;;;6.50;6.00;;;;;;;19.55;64.48;100773.00;5028811;28;20289;-73
2022/06/09 11:30:58;;;;;;;5.80;5.33;;;;;;;19.83;64.05;100772.47;5048421;28;20211;-73
2022/06/09 11:33:36;;;;;;;6.20;5.50;;;;;;;19.57;65.95;100748.16;5054013;28;20250;-74
2022/06/09 11:36:09;;;;;;;6.20;5.63;;;;;;;19.12;67.57;100709.84;5054006;28;20243;-74
2022/06/09 11:38:47;;;;;;;3.60;3.30;;;;;;;19.25;65.49;100712.75;5053685;28;20204;-74
2022/06/09 11:41:26;;;;;;;1.93;1.83;;;;;;;19.40;62.12;100801.94;5053479;28;20216;-75
2022/06/09 11:44:04;;;;;;;3.03;2.10;;;;;;;19.34;63.10;100841.97;5053658;28;20200;-74
2022/06/09 11:46:33;;;;;;;3.03;2.73;;;;;;;19.82;64.09;100797.22;5053598;28;20285;-74
2022/06/09 11:49:04;;;;;;;5.07;3.30;;;;;;;19.90;62.12;100834.81;5053101;28;20667;-75
2022/06/09 11:51:34;;;;;;;4.30;4.03;;;;;;;19.79;63.61;100850.38;5053516;28;20270;-76
2022/06/09 11:54:05;;;;;;;6.80;4.37;;;;;;;20.05;65.62;100766.88;5053073;28;20213;-73
2022/06/09 11:56:34;;;;;;;4.00;3.60;;;;;;;20.42;61.70;100807.34;5053396;28;20282;-74
2022/06/09 11:59:02;;;;;;;2.80;2.70;;;;;;;20.38;60.86;100893.28;5053380;28;20204;-73